Time;durP1;ratioP1;P1;durP2;ratioP2;P2;SDS_P1;SDS_P2;PMS_P1;PMS_P2;Temp;Humidity;BMP_temperature;BMP_pressure;BME280_temperature;BME280_humidity;BME280_pressure;Samples;Min_cycle;Max_cycle;Signal;HPM_P1;HPM_P2
2022/08/10 00:01:43;;;;;;;4.72;1.30;;;;;;;19.00;69.86;102714.06;4917903;29;20045;-73
2022/08/10 00:04:09;;;;;;;5.00;1.55;;;;;;;18.90;69.85;102710.78;4900618;29;20119;-72
2022/08/10 00:06:34;;;;;;;2.05;1.52;;;;;;;18.87;69.78;102708.44;4917390;29;20462;-75
2022/08/10 00:08:59;;;;;;;2.03;1.70;;;;;;;18.88;69.87;102712.03;4914924;29;20039;-72
2022/08/10 00:11:25;;;;;;;3.50;1.60;;;;;;;18.84;69.84;102709.69;4916613;29;20184;-73
2022/08/10 00:13:51;;;;;;;1.60;1.40;;;;;;;18.83;69.88;102704.44;4915326;29;20032;-73
2022/08/10 00:16:16;;;;;;;2.75;1.60;;;;;;;18.76;70.03;102706.22;4904556;29;20493;-72
2022/08/10 00:18:42;;;;;;;2.85;1.50;;;;;;;18.77;69.81;102702.44;4916703;29;20044;-73
2022/08/10 00:21:09;;;;;;;3.67;1.48;;;;;;;18.74;69.52;102706.38;4914351;29;20032;-74
2022/08/10 00:23:35;;;;;;;2.95;1.52;;;;;;;18.63;69.59;102710.44;4919749;29;20032;-73
2022/08/10 00:26:01;;;;;;;3.83;1.60;;;;;;;18.58;69.75;102704.69;4918302;29;20024;-72
2022/08/10 00:28:26;;;;;;;2.42;1.45;;;;;;;18.56;69.64;102701.34;4917502;29;20036;-72
2022/08/10 00:30:52;;;;;;;3.17;1.80;;;;;;;18.55;69.26;102694.19;4901470;29;20088;-73
2022/08/10 00:33:17;;;;;;;4.22;1.75;;;;;;;18.53;69.20;102696.25;4914201;29;20250;-73
2022/08/10 00:35:43;;;;;;;1.48;1.23;;;;;;;18.53;68.63;102690.78;4916069;29;20531;-74
2022/08/10 00:38:08;;;;;;;1.83;1.13;;;;;;;18.51;68.40;102700.19;4906050;29;20506;-73
2022/08/10 00:40:33;;;;;;;1.40;1.30;;;;;;;18.50;68.38;102698.53;4916303;29;20032;-72
2022/08/10 00:42:59;;;;;;;1.52;1.42;;;;;;;18.43;68.19;102695.69;4916032;29;20028;-72
2022/08/10 00:45:24;;;;;;;2.47;1.50;;;;;;;18.41;67.95;102700.50;4919365;29;20052;-72
2022/08/10 00:47:49;;;;;;;2.58;1.50;;;;;;;18.39;67.63;102688.94;4919081;29;20464;-73
2022/08/10 00:50:16;;;;;;;2.88;1.52;;;;;;;18.35;67.39;102696.66;4917453;29;20051;-71
2022/08/10 00:52:42;;;;;;;2.70;1.50;;;;;;;18.31;66.85;102702.66;4917801;29;20040;-76
2022/08/10 00:55:08;;;;;;;7.70;1.55;;;;;;;18.27;66.75;102702.19;4901567;29;20035;-73
2022/08/10 00:57:34;;;;;;;3.42;1.50;;;;;;;18.21;66.46;102700.22;4919497;29;20028;-73
2022/08/10 00:59:59;;;;;;;8.10;1.75;;;;;;;18.14;66.70;102700.13;4919295;29;20403;-76
2022/08/10 01:02:25;;;;;;;3.40;1.40;;;;;;;18.12;66.86;102704.06;4911855;29;20480;-73
2022/08/10 01:04:52;;;;;;;2.17;1.60;;;;;;;18.15;66.94;102703.69;4909493;29;20351;-74
2022/08/10 01:07:25;;;;;;;5.47;1.50;;;;;;;18.10;66.79;102698.81;4910262;29;20052;-74
2022/08/10 01:10:19;;;;;;;1.55;1.45;;;;;;;18.06;66.91;102702.94;4912770;29;20036;-75
2022/08/10 01:13:01;;;;;;;1.80;1.50;;;;;;;18.04;66.87;102696.00;4915340;29;20028;-73
2022/08/10 01:15:26;;;;;;;7.18;1.70;;;;;;;17.99;66.83;102700.09;4918128;29;20071;-74
2022/08/10 01:18:00;;;;;;;8.00;1.85;;;;;;;17.99;67.01;102699.25;4916455;29;20032;-73
2022/08/10 01:20:30;;;;;;;2.78;1.50;;;;;;;17.95;67.00;102687.03;4916765;29;20439;-72
2022/08/10 01:23:17;;;;;;;3.70;2.08;;;;;;;17.92;67.00;102684.69;4919047;29;20124;-71
2022/08/10 01:25:55;;;;;;;2.50;1.77;;;;;;;17.87;67.14;102687.13;4916392;29;20039;-74
2022/08/10 01:28:50;;;;;;;3.00;1.70;;;;;;;17.85;67.11;102678.28;4899529;29;20028;-73
2022/08/10 01:31:20;;;;;;;2.55;1.95;;;;;;;17.85;67.17;102695.50;4915466;29;20044;-73
2022/08/10 01:34:26;;;;;;;3.38;1.70;;;;;;;17.83;66.85;102689.38;4899378;29;20036;-74
2022/08/10 01:36:55;;;;;;;4.60;1.67;;;;;;;17.71;67.44;102686.22;4898825;29;20571;-74
2022/08/10 01:39:27;;;;;;;2.30;1.75;;;;;;;17.72;67.37;102689.78;4900697;29;20047;-75
2022/08/10 01:41:56;;;;;;;3.50;1.80;;;;;;;17.68;67.55;102692.03;4917081;29;20024;-74
2022/08/10 01:44:40;;;;;;;2.70;1.90;;;;;;;17.65;67.69;102678.78;4916987;29;20071;-73
2022/08/10 01:49:59;;;;;;;2.15;1.67;;;;;;;17.67;67.80;102678.63;4904299;29;20050;-74
2022/08/10 01:52:26;;;;;;;2.17;1.80;;;;;;;17.63;67.85;102675.41;4916894;29;20134;-73
2022/08/10 01:54:54;;;;;;;2.08;1.75;;;;;;;17.60;68.11;102678.50;4915907;29;20450;-72
2022/08/10 01:57:20;;;;;;;1.80;1.70;;;;;;;17.58;68.04;102671.53;4898665;29;20040;-75
2022/08/10 01:59:45;;;;;;;2.85;1.75;;;;;;;17.59;68.13;102670.50;4915248;29;20232;-72
2022/08/10 02:02:13;;;;;;;2.60;1.70;;;;;;;17.52;68.20;102676.69;4915579;29;20041;-73
2022/08/10 02:04:40;;;;;;;2.10;1.70;;;;;;;17.56;68.62;102688.03;4914006;29;20540;-73
2022/08/10 02:07:10;;;;;;;2.53;1.70;;;;;;;17.51;68.49;102675.00;4915590;29;20091;-72
2022/08/10 02:09:39;;;;;;;1.60;1.50;;;;;;;17.52;68.63;102675.84;4913348;29;20083;-75
2022/08/10 02:12:13;;;;;;;3.35;1.45;;;;;;;17.51;68.27;102676.88;4916742;29;20372;-73
2022/08/10 02:14:49;;;;;;;2.08;1.75;;;;;;;17.46;68.64;102679.31;4899713;29;20028;-73
2022/08/10 02:17:18;;;;;;;2.10;1.90;;;;;;;17.49;68.72;102676.22;4916045;29;20032;-73
2022/08/10 02:19:44;;;;;;;3.30;1.65;;;;;;;17.46;68.73;102677.44;4896895;29;20020;-74
2022/08/10 02:22:10;;;;;;;4.97;1.98;;;;;;;17.45;68.75;102681.16;4916060;29;20079;-73
2022/08/10 02:24:36;;;;;;;2.47;1.92;;;;;;;17.44;68.80;102673.19;4918249;29;20111;-73
2022/08/10 02:27:04;;;;;;;3.35;1.88;;;;;;;17.39;69.10;102676.44;4913337;29;20539;-72
2022/08/10 02:29:30;;;;;;;2.97;1.92;;;;;;;17.37;69.15;102680.38;4915277;29;20035;-72
2022/08/10 02:31:55;;;;;;;3.13;2.10;;;;;;;17.33;69.51;102667.16;4900022;29;20170;-73
2022/08/10 02:34:22;;;;;;;1.90;1.80;;;;;;;17.30;69.49;102672.97;5004204;23;20057;-72
2022/08/10 02:36:50;;;;;;;6.85;2.13;;;;;;;17.28;69.65;102675.00;4936339;29;20055;-69
2022/08/10 02:39:16;;;;;;;6.03;1.90;;;;;;;17.30;69.79;102678.41;4921118;29;20038;-73
2022/08/10 02:41:41;;;;;;;5.72;2.28;;;;;;;17.26;69.87;102679.78;4953392;29;20297;-72
2022/08/10 02:44:28;;;;;;;5.55;2.40;;;;;;;17.22;70.06;102670.31;4953653;28;20035;-72
2022/08/10 02:47:03;;;;;;;7.43;2.30;;;;;;;17.17;70.14;102666.41;4936459;29;20459;-71
2022/08/10 02:49:34;;;;;;;2.88;1.92;;;;;;;17.07;70.67;102666.66;4952191;29;20035;-72
2022/08/10 02:52:08;;;;;;;5.18;2.20;;;;;;;17.10;70.29;102660.84;4934281;29;20117;-71
2022/08/10 02:54:43;;;;;;;2.40;2.20;;;;;;;17.06;70.89;102652.22;4936709;29;20426;-72
2022/08/10 02:57:13;;;;;;;3.55;2.10;;;;;;;17.11;71.10;102659.81;4933194;29;20037;-72
2022/08/10 02:59:44;;;;;;;3.15;2.15;;;;;;;17.08;70.94;102652.88;4952478;29;20418;-72
2022/08/10 03:02:13;;;;;;;4.40;2.42;;;;;;;17.06;71.13;102649.50;4953535;29;20031;-71
2022/08/10 03:04:47;;;;;;;3.17;2.70;;;;;;;17.03;71.23;102649.84;4953183;29;20027;-72
2022/08/10 03:07:16;;;;;;;5.88;2.92;;;;;;;17.02;71.49;102644.59;4920576;29;20110;-71
2022/08/10 03:09:42;;;;;;;3.72;2.30;;;;;;;16.97;71.57;102642.41;4933839;29;20035;-71
2022/08/10 03:12:10;;;;;;;2.80;2.47;;;;;;;16.96;71.78;102639.91;4936817;29;20114;-72
2022/08/10 03:14:36;;;;;;;2.58;2.35;;;;;;;16.96;71.81;102642.59;4937500;29;20082;-71
2022/08/10 03:17:03;;;;;;;3.10;2.38;;;;;;;16.93;71.96;102637.50;4920532;29;20390;-72
2022/08/10 03:19:31;;;;;;;5.93;2.80;;;;;;;16.89;72.17;102639.75;4937425;29;20044;-70
2022/08/10 03:21:56;;;;;;;;;;;;;;;16.86;72.46;102642.84;4955093;29;20109;-71
2022/08/10 03:24:24;;;;;;;2.85;2.47;;;;;;;16.87;72.61;102644.50;4936100;29;20050;-71
2022/08/10 03:26:52;;;;;;;6.18;2.72;;;;;;;16.84;72.84;102645.72;4952180;28;20601;-71
2022/08/10 03:29:19;;;;;;;4.07;2.72;;;;;;;16.81;72.88;102635.22;4953536;29;20102;-71
2022/08/10 03:31:46;;;;;;;3.40;2.90;;;;;;;16.81;73.04;102642.53;4952913;28;20027;-72
2022/08/10 03:34:13;;;;;;;3.55;2.53;;;;;;;16.81;73.36;102640.66;4904371;29;20059;-71
2022/08/10 03:36:38;;;;;;;3.13;2.67;;;;;;;16.75;73.46;102635.91;4909204;29;20027;-71
2022/08/10 03:39:03;;;;;;;5.07;2.90;;;;;;;16.73;73.83;102637.94;4912379;29;20030;-71
2022/08/10 03:41:34;;;;;;;7.47;2.90;;;;;;;16.74;74.13;102636.91;4929550;29;20499;-72
2022/08/10 03:44:00;;;;;;;3.30;3.00;;;;;;;16.69;74.35;102642.03;4899850;29;20055;-71
2022/08/10 03:46:27;;;;;;;3.63;2.80;;;;;;;16.68;74.51;102643.06;4898768;29;20036;-70
2022/08/10 03:48:55;;;;;;;3.85;3.03;;;;;;;16.68;74.78;102633.03;4898429;29;20024;-71
2022/08/10 03:51:20;;;;;;;;;;;;;;;16.66;74.85;102642.41;4913133;29;20040;-72
2022/08/10 03:53:47;;;;;;;3.75;3.10;;;;;;;16.65;75.18;102640.72;4917572;29;19915;-70
2022/08/10 03:56:13;;;;;;;3.80;3.40;;;;;;;16.60;75.35;102634.97;4941470;29;20379;-70
2022/08/10 03:58:38;;;;;;;4.82;3.30;;;;;;;16.57;75.72;102633.44;4938217;29;20128;-71
2022/08/10 04:01:04;;;;;;;6.38;4.32;;;;;;;16.53;76.03;102631.25;4937010;29;20024;-70
2022/08/10 04:03:30;;;;;;;6.22;3.28;;;;;;;16.57;75.97;102640.75;4921187;29;20110;-72
2022/08/10 04:05:55;;;;;;;6.43;3.72;;;;;;;16.55;76.32;102638.22;4936705;29;20039;-71
2022/08/10 04:08:21;;;;;;;4.35;3.53;;;;;;;16.52;76.44;102640.44;4935456;29;20028;-70
2022/08/10 04:10:46;;;;;;;3.50;3.20;;;;;;;16.52;76.55;102640.44;4912448;29;20039;-71
2022/08/10 04:13:12;;;;;;;5.78;3.60;;;;;;;16.54;76.69;102646.56;4937426;29;20164;-71
2022/08/10 04:15:37;;;;;;;6.70;3.75;;;;;;;16.53;76.99;102642.97;4937348;29;20455;-71
2022/08/10 04:18:02;;;;;;;5.50;3.65;;;;;;;16.54;77.15;102643.84;4937037;29;20024;-71
2022/08/10 04:20:30;;;;;;;4.68;4.10;;;;;;;16.43;77.46;102640.50;4919542;29;20490;-71
2022/08/10 04:22:59;;;;;;;4.13;3.53;;;;;;;16.46;77.61;102639.28;4920166;29;20096;-71
2022/08/10 04:25:25;;;;;;;6.07;4.43;;;;;;;16.49;77.72;102635.38;4920016;29;20024;-72
2022/08/10 04:27:51;;;;;;;6.03;4.05;;;;;;;16.51;77.73;102645.03;4937930;29;20387;-71
2022/08/10 04:30:17;;;;;;;9.93;4.18;;;;;;;16.50;78.06;102642.50;4916710;29;20032;-71
2022/08/10 04:32:44;;;;;;;7.82;4.47;;;;;;;16.52;78.12;102633.13;4899443;29;20038;-71
2022/08/10 04:35:11;;;;;;;4.82;4.07;;;;;;;16.46;78.62;102631.97;4903607;29;20047;-72
2022/08/10 04:37:38;;;;;;;6.53;4.47;;;;;;;16.48;78.65;102630.94;4917059;29;20079;-70
2022/08/10 04:40:04;;;;;;;7.47;4.80;;;;;;;16.50;78.94;102631.63;4935538;29;20410;-71
2022/08/10 04:42:30;;;;;;;5.68;3.88;;;;;;;16.49;78.99;102635.38;4919171;29;20163;-72
2022/08/10 04:44:55;;;;;;;10.27;4.20;;;;;;;16.51;78.95;102639.59;4919252;29;20511;-70
2022/08/10 04:47:21;;;;;;;8.13;4.72;;;;;;;16.54;78.96;102636.53;4936042;29;20106;-72
2022/08/10 04:49:46;;;;;;;6.18;3.95;;;;;;;16.59;79.06;102633.28;4936909;29;20486;-70
2022/08/10 04:52:11;;;;;;;5.03;4.20;;;;;;;16.62;79.19;102639.19;4936625;29;20378;-71
2022/08/10 04:54:37;;;;;;;6.05;3.83;;;;;;;16.69;79.23;102642.03;4936372;29;20110;-71
2022/08/10 04:57:02;;;;;;;5.68;4.10;;;;;;;16.77;79.06;102638.44;4936576;29;20023;-71
2022/08/10 04:59:28;;;;;;;8.20;4.40;;;;;;;16.78;78.77;102632.84;4939283;29;20039;-72
2022/08/10 05:01:53;;;;;;;5.45;4.68;;;;;;;16.78;78.84;102640.16;4916741;29;20031;-71
2022/08/10 05:04:18;;;;;;;9.48;4.43;;;;;;;16.85;78.73;102652.00;4937455;29;20032;-71
2022/08/10 05:06:44;;;;;;;6.90;4.90;;;;;;;16.87;78.92;102637.19;4938726;29;20028;-71
2022/08/10 05:09:09;;;;;;;8.82;4.82;;;;;;;16.94;78.96;102645.50;4937580;29;20031;-72
2022/08/10 05:11:34;;;;;;;8.30;4.45;;;;;;;17.00;79.00;102646.66;4938175;29;20031;-72
2022/08/10 05:14:00;;;;;;;8.15;4.57;;;;;;;17.05;78.82;102642.34;4937489;29;20036;-71
2022/08/10 05:16:25;;;;;;;8.13;5.18;;;;;;;17.08;78.84;102635.69;4927583;29;20070;-72
2022/08/10 05:18:50;;;;;;;7.03;4.50;;;;;;;17.08;79.12;102641.97;4936853;29;20356;-71
2022/08/10 05:21:16;;;;;;;7.63;4.45;;;;;;;17.19;79.15;102635.28;4919751;29;20039;-71
2022/08/10 05:23:41;;;;;;;9.30;4.55;;;;;;;17.27;78.85;102635.22;4938979;29;20062;-71
2022/08/10 05:26:07;;;;;;;8.55;5.30;;;;;;;17.33;78.74;102645.38;4935169;29;20031;-71
2022/08/10 05:28:32;;;;;;;6.45;5.10;;;;;;;17.40;78.69;102644.63;4934094;29;20058;-72
2022/08/10 05:30:57;;;;;;;7.18;4.90;;;;;;;17.48;78.68;102642.72;4935182;29;20024;-72
2022/08/10 05:33:23;;;;;;;6.85;5.25;;;;;;;17.55;78.45;102642.81;4917960;29;20047;-71
2022/08/10 05:35:48;;;;;;;8.23;5.07;;;;;;;17.62;78.44;102653.81;4917605;29;20122;-72
2022/08/10 05:38:14;;;;;;;8.40;4.85;;;;;;;17.68;78.44;102648.47;4916954;29;20079;-71
2022/08/10 05:40:41;;;;;;;6.82;4.70;;;;;;;17.77;78.38;102650.09;4913071;29;20040;-71
2022/08/10 05:43:07;;;;;;;9.90;5.47;;;;;;;17.84;77.84;102641.19;4932878;29;20431;-72
2022/08/10 05:45:32;;;;;;;10.43;5.85;;;;;;;17.91;77.74;102647.59;4917066;29;20083;-70
2022/08/10 05:47:58;;;;;;;9.93;5.05;;;;;;;17.96;78.13;102647.88;4933951;29;20083;-71
2022/08/10 05:50:25;;;;;;;7.97;5.38;;;;;;;18.06;77.43;102651.19;4932885;29;20384;-70
2022/08/10 05:52:51;;;;;;;8.27;5.50;;;;;;;18.08;77.04;102643.63;4933270;29;20062;-71
2022/08/10 05:55:17;;;;;;;12.02;5.28;;;;;;;18.25;76.67;102643.47;4934937;29;20071;-71
2022/08/10 05:57:42;;;;;;;7.85;5.80;;;;;;;18.45;76.22;102641.81;4935664;29;20090;-72
2022/08/10 06:00:10;;;;;;;11.30;5.65;;;;;;;18.84;75.14;102637.91;4916566;29;20039;-69
2022/08/10 06:02:39;;;;;;;8.15;5.70;;;;;;;19.39;72.64;102641.81;4932837;29;20031;-71
2022/08/10 06:05:10;;;;;;;9.07;5.47;;;;;;;20.07;70.05;102644.03;4933867;29;20032;-72
2022/08/10 06:07:39;;;;;;;11.18;5.22;;;;;;;20.88;66.65;102648.78;4924364;29;20036;-71
2022/08/10 06:10:07;;;;;;;9.00;4.47;;;;;;;21.77;63.85;102655.84;4931927;29;20055;-71
2022/08/10 06:12:34;;;;;;;6.68;5.38;;;;;;;22.38;61.45;102641.81;4934306;29;20047;-72
2022/08/10 06:15:01;;;;;;;8.37;4.93;;;;;;;22.93;58.74;102642.16;4934365;29;20027;-72
2022/08/10 06:17:28;;;;;;;11.23;4.80;;;;;;;23.66;56.17;102649.84;4916169;29;20291;-72
2022/08/10 06:19:57;;;;;;;9.38;4.68;;;;;;;23.96;54.59;102648.31;4930416;29;20031;-72
2022/08/10 06:22:25;;;;;;;6.47;4.85;;;;;;;24.20;54.38;102643.84;4917269;29;20491;-72
2022/08/10 06:24:51;;;;;;;10.63;4.95;;;;;;;24.62;53.48;102647.56;4916860;29;20373;-69
2022/08/10 06:27:16;;;;;;;9.48;4.93;;;;;;;25.29;51.60;102654.84;4916358;29;20019;-70
2022/08/10 06:29:42;;;;;;;7.47;5.25;;;;;;;25.37;50.02;102649.00;4915846;29;20046;-72
2022/08/10 06:32:09;;;;;;;11.75;5.53;;;;;;;25.40;50.16;102654.03;4916937;29;20111;-72
2022/08/10 06:34:38;;;;;;;11.00;5.13;;;;;;;25.39;50.29;102650.44;4934217;29;20062;-71
2022/08/10 06:37:05;;;;;;;7.68;5.05;;;;;;;25.53;49.58;102655.72;4932159;29;20031;-69
2022/08/10 06:39:31;;;;;;;7.93;5.53;;;;;;;25.85;49.47;102653.47;4933921;29;20150;-71
2022/08/10 06:42:16;;;;;;;8.73;5.15;;;;;;;26.01;48.30;102650.00;4900299;29;20235;-70
2022/08/10 06:44:50;;;;;;;8.00;5.32;;;;;;;26.26;48.77;102651.63;4919470;29;20082;-72
2022/08/10 06:47:17;;;;;;;8.82;5.38;;;;;;;26.35;47.13;102661.19;4907316;29;20094;-71
2022/08/10 06:49:43;;;;;;;7.78;4.65;;;;;;;26.75;46.82;102654.84;4932731;29;20135;-72
2022/08/10 06:52:09;;;;;;;7.05;5.10;;;;;;;26.91;46.38;102653.22;4931659;29;20038;-72
2022/08/10 06:54:36;;;;;;;11.27;6.07;;;;;;;27.33;44.72;102656.50;4901155;29;20034;-72
2022/08/10 06:57:02;;;;;;;8.82;6.03;;;;;;;27.09;45.48;102664.06;4918108;29;20047;-72
2022/08/10 06:59:36;;;;;;;8.85;5.80;;;;;;;27.31;44.88;102658.66;4932650;29;20074;-71
2022/08/10 07:02:11;;;;;;;9.82;6.20;;;;;;;27.21;45.00;102663.19;4915140;29;20035;-73
2022/08/10 07:04:51;;;;;;;11.38;6.03;;;;;;;26.91;45.66;102665.13;4917681;29;20020;-71
2022/08/10 07:07:18;;;;;;;8.07;6.07;;;;;;;26.59;46.20;102659.22;4932500;29;20103;-70
2022/08/10 07:09:44;;;;;;;9.40;6.47;;;;;;;26.40;46.73;102663.22;4900646;29;20079;-71
2022/08/10 07:12:10;;;;;;;13.10;6.60;;;;;;;26.18;47.40;102655.59;4931537;29;20114;-72
2022/08/10 07:14:41;;;;;;;12.68;7.05;;;;;;;25.92;47.84;102661.66;4931420;29;20523;-72
2022/08/10 07:17:10;;;;;;;13.90;7.22;;;;;;;25.89;48.60;102651.09;4915192;29;20031;-72
2022/08/10 07:19:36;;;;;;;14.50;7.05;;;;;;;25.66;48.68;102647.22;4932583;29;20535;-71
2022/08/10 07:22:02;;;;;;;9.38;6.72;;;;;;;25.48;49.38;102641.81;4933506;29;20047;-71
2022/08/10 07:24:28;;;;;;;11.17;7.73;;;;;;;25.41;49.48;102644.69;4931928;29;20031;-72
2022/08/10 07:26:55;;;;;;;15.27;8.10;;;;;;;25.78;49.43;102650.00;4930371;29;20038;-72
2022/08/10 07:29:26;;;;;;;15.95;7.25;;;;;;;26.40;48.02;102647.50;4913759;29;20035;-70
2022/08/10 07:31:55;;;;;;;12.63;7.10;;;;;;;27.00;46.21;102645.38;4933042;29;20237;-71
2022/08/10 07:34:22;;;;;;;10.45;6.63;;;;;;;27.47;44.95;102647.84;4905676;29;20167;-72
2022/08/10 07:36:48;;;;;;;16.13;7.38;;;;;;;27.44;44.41;102660.25;4924205;29;20060;-72
2022/08/10 07:39:15;;;;;;;12.80;7.38;;;;;;;27.52;44.75;102656.25;4882564;29;20468;-72
2022/08/10 07:41:43;;;;;;;11.55;7.03;;;;;;;27.70;44.16;102650.44;4897800;29;20028;-73
2022/08/10 07:44:11;;;;;;;11.63;6.32;;;;;;;28.37;43.26;102651.34;4915806;29;20036;-72
2022/08/10 07:46:40;;;;;;;13.40;5.72;;;;;;;28.82;42.19;102662.16;4915801;29;20028;-73
2022/08/10 07:49:10;;;;;;;8.55;6.15;;;;;;;29.05;42.11;102657.41;4915782;29;20036;-71
2022/08/10 07:51:36;;;;;;;11.43;5.70;;;;;;;29.98;39.64;102668.94;4913736;29;20365;-71
2022/08/10 07:54:04;;;;;;;10.37;6.13;;;;;;;30.27;37.92;102671.34;4916313;29;20032;-70
2022/08/10 07:56:30;;;;;;;10.07;5.43;;;;;;;30.32;37.65;102667.75;4916865;29;20036;-73
2022/08/10 07:59:03;;;;;;;8.60;5.50;;;;;;;30.46;38.62;102668.09;4914634;29;20039;-70
2022/08/10 08:01:31;;;;;;;12.27;7.68;;;;;;;30.06;38.78;102669.56;4916747;29;20397;-72
2022/08/10 08:03:58;;;;;;;12.65;4.95;;;;;;;30.54;38.48;102675.91;4915165;29;20108;-72
2022/08/10 08:06:24;;;;;;;7.72;4.18;;;;;;;31.10;37.43;102678.84;4916495;29;20289;-71
2022/08/10 08:08:49;;;;;;;12.93;5.60;;;;;;;31.45;35.70;102674.41;4915136;29;20069;-72
2022/08/10 08:11:15;;;;;;;13.87;6.13;;;;;;;31.57;36.19;102669.41;4910522;29;20041;-72
2022/08/10 08:13:41;;;;;;;8.40;4.77;;;;;;;31.90;35.34;102667.09;4912264;29;20070;-72
2022/08/10 08:16:07;;;;;;;6.93;4.53;;;;;;;32.17;34.11;102665.94;4912959;29;20115;-73
2022/08/10 08:18:33;;;;;;;9.80;4.57;;;;;;;32.32;33.47;102668.66;4917158;29;20055;-72
2022/08/10 08:21:00;;;;;;;10.38;4.93;;;;;;;32.46;33.02;102678.06;4914457;29;20040;-71
2022/08/10 08:23:27;;;;;;;19.52;4.88;;;;;;;32.51;33.29;102669.69;4915358;29;20407;-72
2022/08/10 08:25:53;;;;;;;14.05;4.68;;;;;;;32.62;33.85;102667.69;4914308;29;20047;-71
2022/08/10 08:28:19;;;;;;;9.10;4.00;;;;;;;32.96;33.18;102670.53;4916060;29;20036;-71
2022/08/10 08:30:45;;;;;;;8.80;4.50;;;;;;;33.36;32.66;102674.16;4915806;29;20100;-70
2022/08/10 08:33:12;;;;;;;14.17;4.40;;;;;;;33.61;32.75;102669.50;4919838;29;20059;-70
2022/08/10 08:35:37;;;;;;;14.25;4.20;;;;;;;33.75;31.91;102664.84;4918185;29;20309;-72
2022/08/10 08:38:04;;;;;;;9.67;3.90;;;;;;;33.99;31.44;102661.25;4917852;29;20379;-70
2022/08/10 08:40:32;;;;;;;10.43;4.03;;;;;;;34.14;30.51;102666.69;4935085;29;20036;-70
2022/08/10 08:43:15;;;;;;;8.30;3.55;;;;;;;34.12;30.76;102665.31;4918028;29;20422;-71
2022/08/10 08:45:47;;;;;;;9.20;3.85;;;;;;;33.38;31.53;102659.91;4916031;29;20107;-71
2022/08/10 08:48:18;;;;;;;7.68;2.90;;;;;;;33.40;31.46;102657.66;4936210;29;20189;-71
2022/08/10 08:51:07;;;;;;;10.00;3.30;;;;;;;33.97;29.81;102661.56;4935933;29;20028;-71
2022/08/10 08:54:02;;;;;;;7.25;3.08;;;;;;;34.39;29.38;102656.28;4924929;29;20406;-72
2022/08/10 08:56:41;;;;;;;6.38;2.88;;;;;;;34.54;28.37;102664.47;4917038;29;20033;-71
2022/08/10 08:59:22;;;;;;;6.50;2.70;;;;;;;34.50;28.69;102657.84;4914399;29;20094;-70
2022/08/10 09:02:17;;;;;;;7.93;3.30;;;;;;;34.44;29.31;102661.81;4916820;29;20035;-70
2022/08/10 09:05:31;;;;;;;11.10;3.03;;;;;;;34.82;28.17;102654.31;4915144;29;20087;-72
2022/08/10 09:08:16;;;;;;;8.40;2.60;;;;;;;34.55;28.36;102643.78;4902488;29;20047;-71
2022/08/10 09:10:58;;;;;;;6.70;2.53;;;;;;;34.78;28.91;102636.44;4926466;29;20070;-71
2022/08/10 09:13:43;;;;;;;8.48;2.70;;;;;;;35.50;28.08;102635.28;4915464;29;20055;-71
2022/08/10 09:16:17;;;;;;;9.48;2.65;;;;;;;36.14;26.76;102629.84;4916423;29;20110;-71
2022/08/10 09:18:55;;;;;;;8.93;2.55;;;;;;;35.86;26.92;102640.19;4933708;29;20200;-72
2022/08/10 09:21:29;;;;;;;7.32;2.30;;;;;;;36.01;25.80;102620.25;4917001;29;20095;-72
2022/08/10 09:24:12;;;;;;;5.85;2.30;;;;;;;35.96;25.27;102626.78;4916553;29;20031;-71
2022/08/10 09:26:40;;;;;;;6.03;2.20;;;;;;;35.52;25.63;102621.78;4915623;29;20039;-74
2022/08/10 09:29:08;;;;;;;6.80;2.35;;;;;;;34.94;26.52;102617.44;4932729;29;20031;-71
2022/08/10 09:31:44;;;;;;;11.23;2.53;;;;;;;35.11;26.36;102614.97;4914622;29;20035;-71
2022/08/10 09:34:13;;;;;;;;;;;;;;;35.37;26.25;102609.72;4899652;29;20094;-72
2022/08/10 09:37:17;;;;;;;6.10;2.30;;;;;;;35.37;24.56;102609.72;4925441;29;19919;-71
2022/08/10 09:39:58;;;;;;;9.30;2.67;;;;;;;35.20;25.16;102606.69;4912860;29;20035;-72
2022/08/10 09:42:51;;;;;;;6.82;2.58;;;;;;;35.10;26.32;102604.91;4916594;29;20035;-73
2022/08/10 09:45:34;;;;;;;10.00;2.58;;;;;;;34.82;26.85;102597.53;4914821;29;20040;-72
2022/08/10 09:48:24;;;;;;;7.13;2.70;;;;;;;34.88;26.77;102593.50;4898843;29;20032;-71
2022/08/10 09:50:57;;;;;;;8.60;2.42;;;;;;;34.91;26.58;102590.09;4931164;29;20036;-73
2022/08/10 09:53:26;;;;;;;13.68;2.40;;;;;;;35.11;25.76;102600.16;4915507;29;20114;-73
2022/08/10 09:56:13;;;;;;;5.68;2.50;;;;;;;35.08;25.50;102596.00;4928894;29;20036;-69
2022/08/10 09:59:15;;;;;;;14.23;2.38;;;;;;;35.39;25.52;102589.84;4915412;29;20368;-72
2022/08/10 10:02:15;;;;;;;11.70;3.15;;;;;;;35.63;25.61;102584.06;4930015;29;20427;-71
2022/08/10 10:05:10;;;;;;;9.85;2.95;;;;;;;35.65;26.08;102587.38;4853048;29;20050;-70
2022/08/10 10:07:38;;;;;;;5.60;2.50;;;;;;;35.95;25.30;102580.31;4927943;29;20055;-71
2022/08/10 10:10:15;;;;;;;7.82;2.40;;;;;;;35.82;24.89;102569.97;4909194;29;20036;-71
2022/08/10 10:12:47;;;;;;;7.43;2.08;;;;;;;36.29;24.30;102567.81;4906900;29;20028;-72
2022/08/10 10:15:32;;;;;;;15.05;2.50;;;;;;;36.28;24.40;102573.72;4924662;29;20471;-72
2022/08/10 10:18:01;;;;;;;15.30;2.90;;;;;;;36.50;23.84;102564.53;4901795;29;20043;-73
2022/08/10 10:20:52;;;;;;;15.88;2.60;;;;;;;36.25;23.88;102566.78;4933017;29;20066;-72
2022/08/10 10:23:42;;;;;;;8.27;2.28;;;;;;;36.16;23.47;102569.50;4919538;29;20066;-72
2022/08/10 10:26:25;;;;;;;9.88;2.67;;;;;;;36.04;23.95;102561.59;4933243;29;20650;-70
2022/08/10 10:29:20;;;;;;;7.82;2.55;;;;;;;36.11;23.80;102563.19;4900539;29;20046;-72
2022/08/10 10:31:51;;;;;;;7.55;2.10;;;;;;;35.89;22.21;102564.75;4911142;29;20126;-72
2022/08/10 10:34:23;;;;;;;2.88;2.20;;;;;;;34.88;23.76;102554.34;4932134;29;20493;-72
2022/08/10 10:36:51;;;;;;;6.72;2.60;;;;;;;35.45;24.36;102548.56;4916648;29;20380;-72
2022/08/10 10:39:18;;;;;;;8.43;2.45;;;;;;;36.01;23.57;102550.19;4917352;29;20444;-71
2022/08/10 10:42:06;;;;;;;7.40;2.78;;;;;;;36.00;22.94;102551.34;4916081;29;20027;-72
2022/08/10 10:44:37;;;;;;;11.60;3.15;;;;;;;36.00;23.18;102557.78;4934133;29;20028;-73
2022/08/10 10:47:27;;;;;;;6.82;2.60;;;;;;;35.26;22.94;102548.63;4932257;29;20030;-73
2022/08/10 10:50:12;;;;;;;10.85;2.90;;;;;;;34.72;24.32;102548.19;4909016;29;20035;-72
2022/08/10 10:52:48;;;;;;;11.02;2.67;;;;;;;35.11;23.76;102549.78;4930675;29;20035;-72
2022/08/10 10:55:19;;;;;;;7.85;2.58;;;;;;;35.35;23.69;102549.59;4915543;29;20423;-71
2022/08/10 10:57:53;;;;;;;9.95;2.67;;;;;;;35.24;23.96;102543.38;4915025;29;20451;-72
2022/08/10 11:00:24;;;;;;;6.60;2.55;;;;;;;35.48;24.25;102545.97;4928092;29;20483;-72
2022/08/10 11:03:08;;;;;;;4.50;2.40;;;;;;;36.02;23.26;102547.09;4916102;29;20042;-73
2022/08/10 11:05:46;;;;;;;8.38;2.30;;;;;;;35.81;22.57;102543.06;4930732;29;20032;-72
2022/08/10 11:08:24;;;;;;;7.50;2.72;;;;;;;35.80;22.92;102539.44;4931646;29;20032;-71
2022/08/10 11:10:55;;;;;;;8.55;2.63;;;;;;;35.96;22.89;102537.13;4916564;29;20044;-73
2022/08/10 11:13:37;;;;;;;8.02;2.78;;;;;;;35.29;23.34;102534.03;4916681;29;20058;-73
2022/08/10 11:16:08;;;;;;;20.48;3.13;;;;;;;35.02;23.77;102518.00;4897318;29;20119;-72
2022/08/10 11:18:54;;;;;;;6.70;2.22;;;;;;;34.81;22.61;102528.72;4914894;29;20041;-72
2022/08/10 11:21:49;;;;;;;13.77;2.72;;;;;;;34.31;23.62;102516.09;4901353;29;20432;-72
2022/08/10 11:24:42;;;;;;;6.47;2.17;;;;;;;34.95;22.55;102519.25;4933081;29;20051;-72
2022/08/10 11:27:14;;;;;;;5.50;2.22;;;;;;;34.88;22.42;102520.78;4930471;29;20475;-72
2022/08/10 11:29:59;;;;;;;9.27;2.42;;;;;;;35.15;22.85;102522.81;4915942;29;20063;-72
2022/08/10 11:32:40;;;;;;;13.15;2.35;;;;;;;35.32;21.20;102527.81;4931881;29;20032;-73
2022/08/10 11:35:08;;;;;;;10.70;2.28;;;;;;;35.49;22.08;102516.81;4933391;29;20043;-72
2022/08/10 11:37:52;;;;;;;10.63;2.35;;;;;;;35.66;21.77;102513.44;4933984;29;20028;-71
2022/08/10 11:40:27;;;;;;;6.70;2.63;;;;;;;35.71;22.09;102523.69;4932233;29;20129;-72
2022/08/10 11:43:02;;;;;;;5.72;2.38;;;;;;;36.01;21.67;102511.78;4900119;29;20038;-73
2022/08/10 11:45:28;;;;;;;4.97;2.25;;;;;;;35.31;21.87;102510.19;4932218;29;20043;-71